createdAt,value
2019-03-05T00:00:43.431Z,99.90
2019-03-05T00:03:13.457Z,99.90
2019-03-05T00:05:43.005Z,99.90
2019-03-05T00:08:12.481Z,99.90
2019-03-05T00:10:42.165Z,99.90
2019-03-05T00:13:11.729Z,99.90
2019-03-05T00:15:41.727Z,99.90
2019-03-05T00:18:11.235Z,99.90
2019-03-05T00:20:40.659Z,99.90
2019-03-05T00:23:10.190Z,99.90
2019-03-05T00:25:40.049Z,99.90
2019-03-05T00:28:35.598Z,99.90
2019-03-05T00:31:09.853Z,99.90
2019-03-05T00:34:09.864Z,99.90
2019-03-05T00:36:50.073Z,99.90
2019-03-05T00:39:42.401Z,99.90
2019-03-05T00:42:59.148Z,99.90
2019-03-05T00:45:51.068Z,99.90
2019-03-05T00:48:58.638Z,99.90
2019-03-05T00:51:38.324Z,99.90
2019-03-05T00:54:23.815Z,99.90
2019-03-05T00:57:21.844Z,99.90
2019-03-05T01:00:01.921Z,99.90
2019-03-05T01:02:42.012Z,99.90
2019-03-05T01:05:32.935Z,99.90
2019-03-05T01:08:02.426Z,99.90
2019-03-05T01:10:32.016Z,99.90
2019-03-05T01:13:01.642Z,99.90
2019-03-05T01:15:31.123Z,99.90
2019-03-05T01:18:00.597Z,99.90
2019-03-05T01:20:30.114Z,99.90
2019-03-05T01:22:59.639Z,99.90
2019-03-05T01:25:34.496Z,99.90
2019-03-05T01:28:04.066Z,99.90
2019-03-05T01:31:00.782Z,99.90
2019-03-05T01:33:31.829Z,99.90
2019-03-05T01:36:22.302Z,99.90
2019-03-05T01:39:05.403Z,99.90
2019-03-05T01:41:34.927Z,99.90
2019-03-05T01:44:04.394Z,99.90
2019-03-05T01:46:33.898Z,99.90
2019-03-05T01:49:03.411Z,99.90
2019-03-05T01:51:32.876Z,99.90
2019-03-05T01:54:02.391Z,99.90
2019-03-05T01:56:31.869Z,99.90
2019-03-05T01:59:01.349Z,99.90
2019-03-05T02:01:30.907Z,99.90
2019-03-05T02:04:00.491Z,99.90
2019-03-05T02:06:29.999Z,99.90
2019-03-05T02:08:59.520Z,99.90
2019-03-05T02:11:28.996Z,99.90
2019-03-05T02:13:58.525Z,99.90
2019-03-05T02:16:28.023Z,99.90
2019-03-05T02:19:36.769Z,99.90
2019-03-05T02:22:13.749Z,99.90
2019-03-05T02:25:02.695Z,99.90
2019-03-05T02:27:56.275Z,99.90
2019-03-05T02:31:11.710Z,99.90
2019-03-05T02:33:54.939Z,99.90
2019-03-05T02:36:59.450Z,99.90
2019-03-05T02:39:45.692Z,99.90
2019-03-05T02:42:38.247Z,99.90
2019-03-05T02:45:32.348Z,99.90
2019-03-05T02:48:21.063Z,99.90
2019-03-05T02:51:31.914Z,99.90
2019-03-05T02:54:33.890Z,99.90
2019-03-05T02:57:07.865Z,99.90
2019-03-05T02:59:38.092Z,99.90
2019-03-05T03:02:15.569Z,99.90
2019-03-05T03:04:46.732Z,99.90
2019-03-05T03:07:16.608Z,99.90
2019-03-05T03:09:53.559Z,99.90
2019-03-05T03:12:23.076Z,99.90
2019-03-05T03:14:52.559Z,99.90
2019-03-05T03:17:22.127Z,99.90
2019-03-05T03:19:51.617Z,99.90
2019-03-05T03:22:21.089Z,99.90
2019-03-05T03:24:50.593Z,99.90
2019-03-05T03:27:20.069Z,99.90
2019-03-05T03:29:49.556Z,99.90
2019-03-05T03:32:19.049Z,99.90
2019-03-05T03:34:48.525Z,99.90
2019-03-05T03:37:18.107Z,99.90
2019-03-05T03:39:47.606Z,99.90
2019-03-05T03:42:17.078Z,99.90
2019-03-05T03:44:46.566Z,99.90
2019-03-05T03:47:16.079Z,99.90
2019-03-05T03:49:45.556Z,99.90
2019-03-05T03:52:15.059Z,99.90
2019-03-05T03:54:44.576Z,99.90
2019-03-05T03:57:14.112Z,99.90
2019-03-05T03:59:43.626Z,99.90
2019-03-05T04:02:13.184Z,99.90
2019-03-05T04:04:42.693Z,99.90
2019-03-05T04:07:12.186Z,99.90
2019-03-05T04:09:41.756Z,99.90
2019-03-05T04:12:11.243Z,99.90
2019-03-05T04:14:40.724Z,99.90
2019-03-05T04:17:11.888Z,99.90
2019-03-05T04:19:41.385Z,99.90
2019-03-05T04:22:10.856Z,99.90
2019-03-05T04:24:40.363Z,99.90
2019-03-05T04:27:09.848Z,99.90
2019-03-05T04:29:39.336Z,99.90
2019-03-05T04:32:08.839Z,99.90
2019-03-05T04:34:38.338Z,99.90
2019-03-05T04:37:07.822Z,99.90
2019-03-05T04:39:37.355Z,99.90
2019-03-05T04:42:06.860Z,99.90
2019-03-05T04:44:37.918Z,99.90
2019-03-05T04:47:07.432Z,99.90
2019-03-05T04:49:38.496Z,99.90
2019-03-05T04:52:09.566Z,99.90
2019-03-05T04:54:39.087Z,99.90
2019-03-05T04:57:08.570Z,99.90
2019-03-05T04:59:38.057Z,99.90
2019-03-05T05:02:07.564Z,99.90
2019-03-05T05:04:37.061Z,99.90
2019-03-05T05:07:06.529Z,99.90
2019-03-05T05:09:37.907Z,99.90
2019-03-05T05:12:07.256Z,99.90
2019-03-05T05:14:36.746Z,99.90
2019-03-05T05:17:06.268Z,99.90
2019-03-05T05:19:35.841Z,99.90
2019-03-05T05:22:05.238Z,99.90
2019-03-05T05:24:34.751Z,99.90
2019-03-05T05:27:04.250Z,99.90
2019-03-05T05:29:33.747Z,99.90
2019-03-05T05:32:03.264Z,99.90
2019-03-05T05:34:32.689Z,99.90
2019-03-05T05:37:02.166Z,99.90
2019-03-05T05:40:27.659Z,99.90
2019-03-05T05:42:57.242Z,99.90
2019-03-05T05:45:34.117Z,99.90
2019-03-05T05:48:03.611Z,99.90
2019-03-05T05:50:33.099Z,99.90
2019-03-05T05:53:02.604Z,99.90
2019-03-05T05:55:32.104Z,99.90
2019-03-05T05:58:01.631Z,99.90
2019-03-05T06:00:31.329Z,99.90
2019-03-05T06:03:00.822Z,99.90
2019-03-05T06:05:30.311Z,99.90
2019-03-05T06:07:59.800Z,99.90
2019-03-05T06:10:29.404Z,99.90
2019-03-05T06:12:58.981Z,99.90
2019-03-05T06:15:28.495Z,99.90
2019-03-05T06:17:57.984Z,99.90
2019-03-05T06:20:27.471Z,99.90
2019-03-05T06:22:56.992Z,99.90
2019-03-05T06:25:26.478Z,99.90
2019-03-05T06:27:55.961Z,99.90
2019-03-05T06:30:32.433Z,99.90
2019-03-05T06:33:01.930Z,99.90
2019-03-05T06:35:31.405Z,99.90
2019-03-05T06:38:00.934Z,99.90
2019-03-05T06:40:32.312Z,99.90
2019-03-05T06:43:01.807Z,99.90
2019-03-05T06:45:31.327Z,99.90
2019-03-05T06:48:00.801Z,99.90
2019-03-05T06:50:30.482Z,99.90
2019-03-05T06:52:59.985Z,99.90
2019-03-05T06:55:29.467Z,99.90
2019-03-05T06:57:58.951Z,99.90
2019-03-05T07:00:40.483Z,99.90
2019-03-05T07:03:10.782Z,99.90
2019-03-05T07:06:35.252Z,99.90
2019-03-05T07:09:18.436Z,99.90
2019-03-05T07:12:04.409Z,99.90
2019-03-05T07:15:18.928Z,99.90
2019-03-05T07:18:08.344Z,99.90
2019-03-05T07:21:18.495Z,99.90
2019-03-05T07:24:04.758Z,99.90
2019-03-05T07:26:34.234Z,99.90
2019-03-05T07:29:03.714Z,99.90
2019-03-05T07:31:33.222Z,99.90
2019-03-05T07:34:03.112Z,99.90
2019-03-05T07:36:32.588Z,99.90
2019-03-05T07:39:02.107Z,99.90
2019-03-05T07:41:31.589Z,99.90
2019-03-05T07:44:01.078Z,99.90
2019-03-05T07:46:30.579Z,99.90
2019-03-05T07:49:00.062Z,99.90
2019-03-05T07:51:29.546Z,99.90
2019-03-05T07:53:59.055Z,99.90
2019-03-05T07:56:28.551Z,99.90
2019-03-05T07:58:58.013Z,99.90
2019-03-05T08:01:27.543Z,99.90
2019-03-05T08:03:57.020Z,99.90
2019-03-05T08:06:26.497Z,99.90
2019-03-05T08:09:34.917Z,99.90
2019-03-05T08:12:29.788Z,99.90
2019-03-05T08:15:15.401Z,99.90
2019-03-05T08:17:46.883Z,99.90
2019-03-05T08:20:16.095Z,99.90
2019-03-05T08:22:45.601Z,99.90
2019-03-05T08:25:15.090Z,99.90
2019-03-05T08:27:44.584Z,99.90
2019-03-05T08:30:17.544Z,99.90
2019-03-05T08:32:47.030Z,99.90
2019-03-05T08:35:16.445Z,99.90
2019-03-05T08:37:45.874Z,99.90
2019-03-05T08:40:16.592Z,99.90
2019-03-05T08:42:46.113Z,99.90
2019-03-05T08:45:16.134Z,99.90
2019-03-05T08:47:45.630Z,99.90
2019-03-05T08:50:16.676Z,99.90
2019-03-05T08:52:46.091Z,99.90
2019-03-05T08:55:15.588Z,99.90
2019-03-05T08:57:45.056Z,99.90
2019-03-05T09:00:20.009Z,99.90
2019-03-05T09:02:49.567Z,99.90
2019-03-05T09:05:20.048Z,99.90
2019-03-05T09:07:49.552Z,99.90
2019-03-05T09:10:22.445Z,99.90
2019-03-05T09:12:51.915Z,99.90
2019-03-05T09:15:21.428Z,99.90
2019-03-05T09:17:50.912Z,99.90
2019-03-05T09:20:20.898Z,99.90
2019-03-05T09:22:50.501Z,99.90
2019-03-05T09:25:20.283Z,99.90
2019-03-05T09:27:49.778Z,99.90
2019-03-05T09:30:24.822Z,99.90
2019-03-05T09:32:54.314Z,99.90
2019-03-05T09:35:23.797Z,99.90
2019-03-05T09:37:53.321Z,99.90
2019-03-05T09:40:29.380Z,99.90
2019-03-05T09:42:58.893Z,99.90
2019-03-05T09:45:28.511Z,99.90
2019-03-05T09:47:58.038Z,99.90
2019-03-05T09:50:27.544Z,99.90
2019-03-05T09:52:57.031Z,99.90
2019-03-05T09:55:27.010Z,99.90
2019-03-05T09:58:07.696Z,99.90
2019-03-05T10:00:29.474Z,99.90
2019-03-05T10:02:58.952Z,99.90
2019-03-05T10:05:28.570Z,99.90
2019-03-05T10:07:58.072Z,99.90
2019-03-05T10:10:31.248Z,99.00
2019-03-05T10:13:04.117Z,99.70
2019-03-05T10:15:32.673Z,94.50
2019-03-05T10:18:12.373Z,93.80
2019-03-05T10:20:36.633Z,92.70
2019-03-05T10:23:06.319Z,91.80
2019-03-05T10:25:35.797Z,88.10
2019-03-05T10:28:06.125Z,88.80
2019-03-05T10:30:42.398Z,92.00
2019-03-05T10:33:13.396Z,93.60
2019-03-05T10:35:42.874Z,92.80
2019-03-05T10:38:12.967Z,85.10
2019-03-05T10:40:52.477Z,83.60
2019-03-05T10:43:21.972Z,83.50
2019-03-05T10:45:51.447Z,81.70
2019-03-05T10:48:26.193Z,74.50
2019-03-05T10:50:55.693Z,71.60
2019-03-05T10:53:25.170Z,68.90
2019-03-05T10:55:54.822Z,68.20
2019-03-05T10:58:33.414Z,66.30
2019-03-05T11:00:57.108Z,64.60
2019-03-05T11:03:29.749Z,60.20
2019-03-05T11:05:59.258Z,56.20
2019-03-05T11:08:28.894Z,55.70
2019-03-05T11:10:58.510Z,53.20
2019-03-05T11:13:31.089Z,51.30
2019-03-05T11:16:04.060Z,48.60
2019-03-05T11:18:33.541Z,47.70
2019-03-05T11:21:03.138Z,47.50
2019-03-05T11:23:32.631Z,47.60
2019-03-05T11:26:02.115Z,47.40
2019-03-05T11:28:31.595Z,45.70
2019-03-05T11:31:01.121Z,45.40
2019-03-05T11:33:30.605Z,43.20
2019-03-05T11:36:00.097Z,41.30
2019-03-05T11:38:29.598Z,41.60
2019-03-05T11:40:59.079Z,40.60
2019-03-05T11:43:28.553Z,39.60
2019-03-05T11:45:58.067Z,40.30
2019-03-05T11:48:27.560Z,36.80
2019-03-05T11:50:56.975Z,32.70
2019-03-05T11:53:26.499Z,30.30
2019-03-05T11:55:55.994Z,27.50
2019-03-05T11:58:25.489Z,25.50
2019-03-05T12:00:56.566Z,24.50
2019-03-05T12:03:34.733Z,24.30
2019-03-05T12:06:04.722Z,24.80
2019-03-05T12:08:34.202Z,22.60
2019-03-05T12:11:03.700Z,23.10
2019-03-05T12:13:33.140Z,23.40
2019-03-05T12:16:02.749Z,23.50
2019-03-05T12:18:32.342Z,22.80
2019-03-05T12:21:01.839Z,22.40
2019-03-05T12:23:31.564Z,22.50
2019-03-05T12:26:01.094Z,21.80
2019-03-05T12:28:30.669Z,21.60
2019-03-05T12:31:00.159Z,22.00
2019-03-05T12:33:29.628Z,22.10
2019-03-05T12:35:59.154Z,21.70
2019-03-05T12:38:28.631Z,21.30
2019-03-05T12:40:58.155Z,20.80
2019-03-05T12:43:27.711Z,20.90
2019-03-05T12:45:57.180Z,21.20
2019-03-05T12:48:26.609Z,21.30
2019-03-05T12:50:56.049Z,21.30
2019-03-05T12:53:25.518Z,21.70
2019-03-05T12:55:55.024Z,22.10
2019-03-05T12:58:24.595Z,23.20
2019-03-05T13:00:54.076Z,22.60
2019-03-05T13:03:23.642Z,23.30
2019-03-05T13:05:53.149Z,22.60
2019-03-05T13:08:22.628Z,22.90
2019-03-05T13:10:52.125Z,22.90
2019-03-05T13:13:21.632Z,22.60
2019-03-05T13:15:52.939Z,22.30
2019-03-05T13:18:22.316Z,22.10
2019-03-05T13:20:51.840Z,23.10
2019-03-05T13:23:21.316Z,23.80
2019-03-05T13:25:50.835Z,24.50
2019-03-05T13:28:20.322Z,25.50
2019-03-05T13:30:49.812Z,26.20
2019-03-05T13:33:19.319Z,26.60
2019-03-05T13:35:48.813Z,27.20
2019-03-05T13:38:18.296Z,27.10
2019-03-05T13:40:47.825Z,26.60
2019-03-05T13:43:17.315Z,26.50
2019-03-05T13:45:49.580Z,26.60
2019-03-05T13:48:23.787Z,24.90
2019-03-05T13:51:06.986Z,22.90
2019-03-05T13:54:09.411Z,23.10
2019-03-05T13:56:44.911Z,23.30
2019-03-05T13:59:37.042Z,23.30
2019-03-05T14:02:08.637Z,23.30
2019-03-05T14:04:42.831Z,23.40
2019-03-05T14:07:25.683Z,22.70
2019-03-05T14:09:55.198Z,23.20
2019-03-05T14:12:24.721Z,23.60
2019-03-05T14:14:54.269Z,24.40
2019-03-05T14:17:25.298Z,27.10
2019-03-05T14:19:55.120Z,25.60
2019-03-05T14:22:24.628Z,26.60
2019-03-05T14:25:02.092Z,26.70
2019-03-05T14:27:25.510Z,25.20
2019-03-05T14:29:55.011Z,24.20
2019-03-05T14:32:24.515Z,24.00
2019-03-05T14:35:00.529Z,25.30
2019-03-05T14:37:30.306Z,26.70
2019-03-05T14:40:22.282Z,29.30
2019-03-05T14:42:30.992Z,29.30
2019-03-05T14:45:00.535Z,29.30
2019-03-05T14:47:30.158Z,31.40
2019-03-05T14:49:59.936Z,33.10
2019-03-05T14:52:29.479Z,34.90
2019-03-05T14:54:59.019Z,37.40
2019-03-05T14:57:28.511Z,38.60
2019-03-05T14:59:58.017Z,37.40
2019-03-05T15:02:27.514Z,35.00
2019-03-05T15:04:57.048Z,30.60
2019-03-05T15:07:26.608Z,30.60
2019-03-05T15:09:56.174Z,29.00
2019-03-05T15:12:25.780Z,27.20
2019-03-05T15:14:55.354Z,26.90
2019-03-05T15:17:24.865Z,27.50
2019-03-05T15:19:54.361Z,27.20
2019-03-05T15:22:24.019Z,26.90
2019-03-05T15:24:53.524Z,26.40
2019-03-05T15:27:23.081Z,27.10
2019-03-05T15:29:52.661Z,25.70
2019-03-05T15:32:22.173Z,26.00
2019-03-05T15:34:51.680Z,25.80
2019-03-05T15:37:21.211Z,25.60
2019-03-05T15:39:50.699Z,25.90
2019-03-05T15:42:20.207Z,26.90
2019-03-05T15:44:49.784Z,27.60
2019-03-05T15:47:19.271Z,28.00
2019-03-05T15:49:48.956Z,28.40
2019-03-05T15:52:18.472Z,29.00
2019-03-05T15:54:47.998Z,29.80
2019-03-05T15:57:25.904Z,30.00
2019-03-05T15:59:48.856Z,30.10
2019-03-05T16:02:18.358Z,29.90
2019-03-05T16:04:47.863Z,30.00
2019-03-05T16:07:17.381Z,30.10
2019-03-05T16:09:46.995Z,30.70
2019-03-05T16:12:16.479Z,31.50
2019-03-05T16:14:47.508Z,33.10
2019-03-05T16:17:18.621Z,33.90
2019-03-05T16:19:49.068Z,34.80
2019-03-05T16:22:19.362Z,35.60
2019-03-05T16:24:48.970Z,36.60
2019-03-05T16:27:18.453Z,38.30
2019-03-05T16:29:47.982Z,39.30
2019-03-05T16:32:28.181Z,40.10
2019-03-05T16:35:18.516Z,41.00
2019-03-05T16:37:53.046Z,41.60
2019-03-05T16:40:24.106Z,41.90
2019-03-05T16:42:55.164Z,42.60
2019-03-05T16:45:28.959Z,43.30
2019-03-05T16:48:06.155Z,43.60
2019-03-05T16:50:49.576Z,43.90
2019-03-05T16:53:23.621Z,44.40
2019-03-05T16:55:54.871Z,45.00
2019-03-05T16:58:26.147Z,45.70
2019-03-05T17:00:57.216Z,46.10
2019-03-05T17:03:28.270Z,46.60
2019-03-05T17:06:02.091Z,46.60
2019-03-05T17:08:42.467Z,47.40
2019-03-05T17:11:22.903Z,47.60
2019-03-05T17:13:52.392Z,47.80
2019-03-05T17:16:21.889Z,48.80
2019-03-05T17:18:51.423Z,49.20
2019-03-05T17:21:27.446Z,49.40
2019-03-05T17:23:52.053Z,49.60
2019-03-05T17:26:21.664Z,50.10
2019-03-05T17:28:51.333Z,50.70
2019-03-05T17:31:20.866Z,51.10
2019-03-05T17:33:50.389Z,50.80
2019-03-05T17:36:19.881Z,51.40
2019-03-05T17:38:49.400Z,51.50
2019-03-05T17:41:19.009Z,51.60
2019-03-05T17:43:48.517Z,51.80
2019-03-05T17:46:18.027Z,51.90
2019-03-05T17:48:48.275Z,51.80
2019-03-05T17:51:18.163Z,52.50
2019-03-05T17:53:47.700Z,53.30
2019-03-05T17:56:17.250Z,54.00
2019-03-05T17:58:46.753Z,54.70
2019-03-05T18:01:16.275Z,54.80
2019-03-05T18:03:45.903Z,55.20
2019-03-05T18:06:15.434Z,56.00
2019-03-05T18:08:44.917Z,56.60
2019-03-05T18:11:14.477Z,56.90
2019-03-05T18:13:43.998Z,57.30
2019-03-05T18:16:13.493Z,57.70
2019-03-05T18:18:42.993Z,57.70
2019-03-05T18:21:12.510Z,57.70
2019-03-05T18:23:42.006Z,58.00
2019-03-05T18:26:11.865Z,58.60
2019-03-05T18:28:41.383Z,58.50
2019-03-05T18:31:10.993Z,58.80
2019-03-05T18:33:40.465Z,59.00
2019-03-05T18:36:09.972Z,59.20
2019-03-05T18:38:39.484Z,59.80
2019-03-05T18:41:08.988Z,60.20
2019-03-05T18:43:38.653Z,60.50
2019-03-05T18:46:08.154Z,61.10
2019-03-05T18:48:37.643Z,61.70
2019-03-05T18:51:07.263Z,61.80
2019-03-05T18:53:36.770Z,62.30
2019-03-05T18:56:06.267Z,62.90
2019-03-05T18:58:35.787Z,63.20
2019-03-05T19:01:05.354Z,63.40
2019-03-05T19:03:34.847Z,63.90
2019-03-05T19:06:04.351Z,64.50
2019-03-05T19:08:33.849Z,64.70
2019-03-05T19:11:03.353Z,65.20
2019-03-05T19:13:33.143Z,65.90
2019-03-05T19:16:02.736Z,66.10
2019-03-05T19:18:32.236Z,66.50
2019-03-05T19:21:01.746Z,66.10
2019-03-05T19:23:31.245Z,67.30
2019-03-05T19:26:00.744Z,66.80
2019-03-05T19:28:30.262Z,67.00
2019-03-05T19:30:59.763Z,67.30
2019-03-05T19:33:29.232Z,67.70
2019-03-05T19:35:58.764Z,68.20
2019-03-05T19:38:28.236Z,68.00
2019-03-05T19:40:57.729Z,67.40
2019-03-05T19:43:27.235Z,66.70
2019-03-05T19:45:56.725Z,65.60
2019-03-05T19:48:26.200Z,64.60
2019-03-05T19:50:55.716Z,65.80
2019-03-05T19:53:25.304Z,66.40
2019-03-05T19:55:54.809Z,66.90
2019-03-05T19:58:24.319Z,66.80
2019-03-05T20:01:04.826Z,66.90
2019-03-05T20:03:34.384Z,68.80
2019-03-05T20:06:04.182Z,69.10
2019-03-05T20:08:40.023Z,69.50
2019-03-05T20:11:04.907Z,70.30
2019-03-05T20:13:34.384Z,70.60
2019-03-05T20:16:05.174Z,71.30
2019-03-05T20:18:34.749Z,71.60
2019-03-05T20:21:04.260Z,72.10
2019-03-05T20:23:34.997Z,72.20
2019-03-05T20:26:04.733Z,72.30
2019-03-05T20:28:35.817Z,72.70
2019-03-05T20:31:05.599Z,72.70
2019-03-05T20:33:35.552Z,73.20
2019-03-05T20:36:05.242Z,73.90
2019-03-05T20:38:35.637Z,74.60
2019-03-05T20:41:05.260Z,75.90
2019-03-05T20:43:34.745Z,76.10
2019-03-05T20:46:12.590Z,76.10
2019-03-05T20:48:42.142Z,75.40
2019-03-05T20:51:11.646Z,75.60
2019-03-05T20:53:41.224Z,76.00
2019-03-05T20:56:11.088Z,76.30
2019-03-05T20:58:40.693Z,76.20
2019-03-05T21:01:10.742Z,76.10
2019-03-05T21:03:40.227Z,76.10
2019-03-05T21:06:09.723Z,75.90
2019-03-05T21:08:39.523Z,75.50
2019-03-05T21:11:09.011Z,74.80
2019-03-05T21:13:38.497Z,75.10
2019-03-05T21:16:08.022Z,75.10
2019-03-05T21:18:37.510Z,75.40
2019-03-05T21:21:07.079Z,76.00
2019-03-05T21:23:36.611Z,76.80
2019-03-05T21:26:06.173Z,77.60
2019-03-05T21:28:35.701Z,77.90
2019-03-05T21:31:05.217Z,78.40
2019-03-05T21:33:34.690Z,78.90
2019-03-05T21:36:04.178Z,79.40
2019-03-05T21:38:33.793Z,80.00
2019-03-05T21:41:03.278Z,80.30
2019-03-05T21:43:33.144Z,80.80
2019-03-05T21:46:07.331Z,81.40
2019-03-05T21:48:36.837Z,81.50
2019-03-05T21:51:06.323Z,81.90
2019-03-05T21:53:35.833Z,82.40
2019-03-05T21:56:05.310Z,82.70
2019-03-05T21:58:34.796Z,83.90
2019-03-05T22:01:04.305Z,84.30
2019-03-05T22:03:33.896Z,84.80
2019-03-05T22:06:03.807Z,84.90
2019-03-05T22:08:33.351Z,85.50
2019-03-05T22:11:02.840Z,85.50
2019-03-05T22:13:32.315Z,87.20
2019-03-05T22:16:01.834Z,88.40
2019-03-05T22:18:31.509Z,88.60
2019-03-05T22:21:01.050Z,89.00
2019-03-05T22:23:30.561Z,89.40
2019-03-05T22:26:00.062Z,90.20
2019-03-05T22:28:29.570Z,90.60
2019-03-05T22:30:59.079Z,91.20
2019-03-05T22:33:28.568Z,91.30
2019-03-05T22:35:58.043Z,91.70
2019-03-05T22:38:27.553Z,91.90
2019-03-05T22:40:57.027Z,92.90
2019-03-05T22:43:26.520Z,94.50
2019-03-05T22:45:56.106Z,93.90
2019-03-05T22:48:25.578Z,94.00
2019-03-05T22:50:55.054Z,94.30
2019-03-05T22:53:24.564Z,95.30
2019-03-05T22:55:54.047Z,95.30
2019-03-05T22:58:23.531Z,95.60
2019-03-05T23:00:59.484Z,95.60
2019-03-05T23:03:31.352Z,95.90
2019-03-05T23:06:04.478Z,96.20
2019-03-05T23:08:33.993Z,96.40
2019-03-05T23:11:03.518Z,96.60
2019-03-05T23:13:33.317Z,96.70
2019-03-05T23:16:02.799Z,97.00
2019-03-05T23:18:32.479Z,97.30
2019-03-05T23:21:03.566Z,97.90
2019-03-05T23:23:33.110Z,98.80
2019-03-05T23:26:02.889Z,99.50
2019-03-05T23:28:32.425Z,99.90
2019-03-05T23:31:01.914Z,99.90
2019-03-05T23:33:31.380Z,99.90
2019-03-05T23:36:00.916Z,99.90
2019-03-05T23:38:30.393Z,99.90
2019-03-05T23:40:59.871Z,99.90
2019-03-05T23:43:29.398Z,99.90
2019-03-05T23:45:58.884Z,99.90
2019-03-05T23:48:28.359Z,99.90
2019-03-05T23:50:58.142Z,99.90
2019-03-05T23:53:27.536Z,99.90
2019-03-05T23:55:57.020Z,99.90
2019-03-05T23:58:26.524Z,99.90
